Aeroporto :
LOGIN :

Iscrizione | Disclaimer

   EN    FR    IT 

 










Sommario :    VFR   VFR Marginale   IFR   IFR Intensivo   IFR Molto Intensivo
Visibilità : 
Base nubi : 
>= 8 km
>= 3000ft
5 / 8 km
1000 / 3000 ft
1500m / 5 km
500 / 1000 ft
800 / 1500m
200 / 500 ft
< 800m
< 200 ft
Simboli :   Temporali  Nebbia  Neve Forte  Precipitazioni Forti  Vento > 20 kt
SIGMETs :   Varie  Temporali  Ghiacco  Turbolenza  Onda orograficha  Ceneri Vulcaniche







- Altitudine del aeroporto : 408 ft
- Codice IATA : SOB


LHSM - Sarmellek Balaton

ULTIMO METAR :
  • 180915Z AUTO 00000KT CAVOK 22/18 Q1018 NOSIG

METARs OBSOLETI :
  • 180845Z AUTO VRB02KT 9999 -SHRA FEW032 BKN086 21/17 Q1018 NOSIG
  • 180815Z AUTO VRB02KT 9000 -RA NSC 21/17 Q1018 NOSIG
  • 180745Z AUTO VRB02KT 9000 FEW028 SCT051 BKN064 22/17 Q1018 NOSIG
  • 180715Z AUTO 13003KT 070V180 9999 BKN049TCU BKN099 21/17 Q1018 NOSIG
  • 180645Z AUTO 10004KT 060V150 9999 SCT053TCU BKN093 21/16 Q1018 NOSIG

TAF TAF LHSM
Valido dal 18 a 09 ore il 18 a 18 ore UTC


180815Z 1809/1818 11004KT 9999 SCT030 BKN070
TEMPO 1809/1814 VRB20G30KT 3000 SHRA TSRA BKN020CB BKN050
PROB30
TEMPO 1811/1814 VRB30G42KT 1000 +TSRA BKN015CB BKN040
BECMG 1814/1816 CAVOK
Nessun NOTAM noto per questo aeroporto.



MetMap, La meteo Aeronautica in un colpo d'occhio ! - Copyright ORBIFLY Dicembre 2007 - Disclaimer

ORBIFLY MET'MAP TEAM :

Programmazione e sviluppo : Alexandra Zaïnal
Concezione e sviluppo : Baudouin d'Aumeries
Co-Programmazione e sviluppo : Marc-Olivier Méhu
Supporto tecnico e logistico : Manuel Goepfert
Aiuto per la traduzione : Arnaldo La Scala

Contatto : metmap@orbifly.com




FONTI E CREDITI :

   NOAA